»·PEaware :: AAL1613 KPDX-KSFO

AAL1613 :: KPDX-KSFO

FLIGHT INFORMATION

Flight Status: Arrived
Operator:
American Airlines
More flights by this operator :: More flights under this callsign
Pilot: Clay B. (17061)
Aircraft: BOEING 767-300
(B763)
More flights by this aircraft type
Origin: KPDX Portland Intl
United States
Destination: KSFO San Francisco Intl
United States
More flights between these airports :: More routes between these airports
Route: MINNE5 FAMUK Q3 FOWND MLBEC BDEGA2
File this flight plan on PilotEdge
Remarks: PBN / A1B1C1D1L1O1 DOF / 180105 REG / N619SB EET / KZOA0042 OPR / AAL PER / D RMK / TCAS SIMBRIEF
Altitude:
(Current/Filed)
37,000ft
Speed:
(Current/Filed)
472kts
Departed: 04-Jan-18 06:01 PM
Arrived: 04-Jan-18 07:30 PM
Distance/Time
Traveled:
478nm/1:29
Distance/Time
To Go:
Arrived

Flight Plot

Page will automatically refresh every two minutes.


Map Options




Map Legend


Flown Route
Filed Route
Departure Airport
Arrival Airport
Navaid (VOR, NDB)
Fix

Horizontal Profiles

Position Reports

Time Latitude Longitude Heading Altitude Ground
Speed
04-Jan-18 17:41 45.588741 -122.597476 29 40ft 0kts
04-Jan-18 17:42 45.588741 -122.597476 29 40ft 0kts
04-Jan-18 17:43 45.588741 -122.597476 29 40ft 0kts
04-Jan-18 17:44 45.588741 -122.597476 29 40ft 0kts
04-Jan-18 17:45 45.588741 -122.597476 29 40ft 0kts
04-Jan-18 17:46 45.588741 -122.597476 29 40ft 0kts
04-Jan-18 17:47 45.588741 -122.597476 29 40ft 0kts
04-Jan-18 17:48 45.588741 -122.597476 29 40ft 0kts
04-Jan-18 17:49 45.588741 -122.597476 29 40ft 0kts
04-Jan-18 17:50 45.588741 -122.597476 29 40ft 0kts
04-Jan-18 17:51 45.588740 -122.597476 29 40ft 0kts
04-Jan-18 17:52 45.588321 -122.597815 29 40ft 2kts
04-Jan-18 17:53 45.588208 -122.598307 119 40ft 0kts
04-Jan-18 17:54 45.588208 -122.598306 119 40ft 0kts
04-Jan-18 17:55 45.588205 -122.598298 119 40ft 0kts
04-Jan-18 17:56 45.587679 -122.596979 121 40ft 0kts
04-Jan-18 17:57 45.587245 -122.597920 295 40ft 8kts
04-Jan-18 17:58 45.589124 -122.602715 298 40ft 15kts
04-Jan-18 17:59 45.590997 -122.602452 45 40ft 0kts
04-Jan-18 18:00 45.591086 -122.602410 5 40ft 1kts
04-Jan-18 18:01 45.591164 -122.602426 344 40ft 0kts
04-Jan-18 18:02 45.591556 -122.601837 55 40ft 16kts
04-Jan-18 18:03 45.593983 -122.598566 319 40ft 5kts
04-Jan-18 18:04 45.595414 -122.600683 26 40ft 0kts
04-Jan-18 18:05 45.595414 -122.600683 26 40ft 0kts
04-Jan-18 18:06 45.596221 -122.599314 111 40ft 4kts
04-Jan-18 18:07 45.585284 -122.562678 101 1626ft 142kts
04-Jan-18 18:08 45.570802 -122.488062 103 3754ft 214kts
04-Jan-18 18:09 45.555434 -122.403703 102 7493ft 233kts
04-Jan-18 18:10 45.525528 -122.324792 155 10527ft 273kts
04-Jan-18 18:11 45.439205 -122.330528 208 12940ft 352kts
04-Jan-18 18:12 45.387041 -122.447631 246 14776ft 359kts
04-Jan-18 18:13 45.346745 -122.581072 243 18366ft 374kts
04-Jan-18 18:14 45.303595 -122.716306 242 21488ft 391kts
04-Jan-18 18:15 45.257464 -122.859376 242 24257ft 407kts
04-Jan-18 18:16 45.178048 -122.970015 204 26647ft 418kts
04-Jan-18 18:17 45.062642 -123.005573 192 28817ft 436kts
04-Jan-18 18:18 44.942888 -123.033781 192 31365ft 435kts
04-Jan-18 18:19 44.828800 -123.060214 193 33943ft 424kts
04-Jan-18 18:20 44.713035 -123.086953 193 35831ft 423kts
04-Jan-18 18:21 44.597349 -123.113566 193 37054ft 425kts
04-Jan-18 18:22 44.480480 -123.134401 183 37037ft 427kts
04-Jan-18 18:23 44.361618 -123.130780 183 37046ft 429kts
04-Jan-18 18:24 44.243018 -123.126635 183 37045ft 429kts
04-Jan-18 18:25 44.124430 -123.122430 183 37043ft 429kts
04-Jan-18 18:26 44.005327 -123.118217 183 37042ft 429kts
04-Jan-18 18:27 43.887994 -123.114082 183 37046ft 429kts
04-Jan-18 18:28 43.771150 -123.109978 183 37050ft 429kts
04-Jan-18 18:29 43.651747 -123.105796 183 37050ft 430kts
04-Jan-18 18:30 43.532940 -123.101666 183 36994ft 430kts
04-Jan-18 18:31 43.413615 -123.097527 183 36993ft 430kts
04-Jan-18 18:32 43.294391 -123.093407 183 36991ft 430kts
04-Jan-18 18:33 43.175331 -123.089309 183 36990ft 430kts
04-Jan-18 18:34 43.055536 -123.085202 183 36989ft 431kts
04-Jan-18 18:35 42.936300 -123.081129 183 36988ft 431kts
04-Jan-18 18:36 42.821113 -123.077207 183 36997ft 431kts
04-Jan-18 18:37 42.702126 -123.073174 183 37023ft 430kts
04-Jan-18 18:38 42.582963 -123.069149 183 37018ft 430kts
04-Jan-18 18:39 42.463592 -123.065150 183 36993ft 429kts
04-Jan-18 18:40 42.344676 -123.061297 183 36992ft 429kts
04-Jan-18 18:41 42.225682 -123.057455 183 36991ft 429kts
04-Jan-18 18:42 42.106888 -123.053632 183 36990ft 429kts
04-Jan-18 18:43 42.007528 -123.050445 183 36989ft 428kts
04-Jan-18 18:44 41.873073 -123.046149 183 36999ft 429kts
04-Jan-18 18:45 41.756606 -123.042442 183 37030ft 428kts
04-Jan-18 18:46 41.657632 -123.039306 183 37077ft 429kts
04-Jan-18 18:47 41.520632 -123.034974 183 37075ft 428kts
04-Jan-18 18:48 41.402444 -123.031252 183 37074ft 428kts
04-Jan-18 18:49 41.303534 -123.028184 183 37127ft 428kts
04-Jan-18 18:50 41.185365 -123.024600 183 37125ft 427kts
04-Jan-18 18:51 41.067181 -123.021032 183 37124ft 427kts
04-Jan-18 18:52 40.949009 -123.017477 183 37123ft 427kts
04-Jan-18 18:53 40.838357 -123.014160 184 37134ft 427kts
04-Jan-18 18:54 40.720226 -123.010630 184 37131ft 426kts
04-Jan-18 18:55 40.601843 -123.007107 184 37130ft 427kts
04-Jan-18 18:56 40.483837 -123.003606 184 37129ft 427kts
04-Jan-18 18:57 40.365399 -123.000105 184 37128ft 427kts
04-Jan-18 18:58 40.247211 -122.996623 184 37127ft 427kts
04-Jan-18 18:59 40.129290 -122.993147 184 37123ft 425kts
04-Jan-18 19:00 40.011356 -122.989708 184 37124ft 425kts
04-Jan-18 19:01 39.895463 -122.986329 184 37124ft 424kts
04-Jan-18 19:02 39.779216 -122.982949 186 37143ft 438kts
04-Jan-18 19:03 39.658842 -122.979447 185 37145ft 426kts
04-Jan-18 19:04 39.540879 -122.976101 186 37097ft 437kts
04-Jan-18 19:05 39.420322 -122.972588 186 37072ft 432kts
04-Jan-18 19:06 39.300225 -122.969154 186 37074ft 433kts
04-Jan-18 19:07 39.184124 -122.965830 186 36163ft 420kts
04-Jan-18 19:08 39.066257 -122.962736 187 33320ft 431kts
04-Jan-18 19:09 38.945986 -122.960440 186 30503ft 437kts
04-Jan-18 19:10 38.841215 -122.948388 174 28728ft 435kts
04-Jan-18 19:11 38.725460 -122.914661 174 26838ft 422kts
04-Jan-18 19:12 38.613819 -122.881738 173 25099ft 406kts
04-Jan-18 19:13 38.508610 -122.850731 173 23548ft 373kts
04-Jan-18 19:14 38.409875 -122.821735 173 22039ft 360kts
04-Jan-18 19:15 38.313850 -122.793594 173 20478ft 352kts
04-Jan-18 19:16 38.219912 -122.766151 172 18884ft 347kts
04-Jan-18 19:17 38.127408 -122.739233 172 17411ft 338kts
04-Jan-18 19:18 38.037148 -122.713050 171 15993ft 329kts
04-Jan-18 19:19 37.948971 -122.687541 171 14520ft 324kts
04-Jan-18 19:20 37.869028 -122.640526 145 13013ft 332kts
04-Jan-18 19:21 37.799366 -122.567110 144 11730ft 327kts
04-Jan-18 19:24 37.614958 -122.372190 150 8750ft 260kts
04-Jan-18 19:25 37.554456 -122.333211 153 6884ft 260kts
04-Jan-18 19:26 37.490735 -122.292786 152 5164ft 255kts
04-Jan-18 19:27 37.429829 -122.254094 152 3954ft 237kts
04-Jan-18 19:28 37.369284 -122.219756 163 3984ft 237kts
04-Jan-18 19:29 37.347293 -122.157062 52 3999ft 244kts
04-Jan-18 19:30 37.408574 -122.138391 343 4000ft 250kts
04-Jan-18 19:31 37.472424 -122.164056 343 3483ft 237kts
04-Jan-18 19:32 37.534009 -122.189852 328 2906ft 217kts
04-Jan-18 19:33 37.564897 -122.246990 298 2091ft 190kts
04-Jan-18 19:34 37.587466 -122.301418 297 1028ft 161kts
04-Jan-18 19:35 37.607023 -122.347317 299 243ft 146kts
04-Jan-18 19:36 37.618959 -122.377373 268 29ft 0kts
04-Jan-18 19:37 37.618843 -122.378769 236 31ft 13kts
04-Jan-18 19:38 37.617877 -122.380547 258 34ft 0kts
04-Jan-18 19:39 37.617878 -122.380547 258 34ft 0kts
04-Jan-18 19:40 37.617878 -122.380547 258 34ft 0kts
04-Jan-18 19:41 37.617878 -122.380547 258 34ft 0kts
04-Jan-18 19:42 37.617878 -122.380547 258 34ft 0kts
04-Jan-18 19:43 37.617878 -122.380547 258 34ft 0kts
04-Jan-18 19:44 37.617878 -122.380547 258 34ft 0kts
04-Jan-18 19:45 37.617878 -122.380547 258 34ft 0kts
04-Jan-18 19:46 37.617878 -122.380547 258 34ft 0kts
04-Jan-18 19:47 37.617878 -122.380547 258 34ft 0kts
04-Jan-18 19:48 37.617878 -122.380547 258 34ft 0kts
04-Jan-18 19:49 37.617878 -122.380547 258 34ft 0kts
04-Jan-18 19:50 37.617878 -122.380547 258 34ft 0kts

Navigation Log

Ident Type
1. KPDX Airport
2. RIVRR Fix
3. COSUG Fix
4. BISLE Fix
5. MINNE Fix
6. FAMUK Fix
7. FAMUK Navaid
8. FRFLY Navaid
9. FINER Navaid
10. FOWND Navaid
11. MLBEC Fix
12. JONNE Fix
13. BGGLO Fix
14. LOZIT Fix
15. BDEGA Fix
16. CORKK Fix
17. BRIXX Fix
18. KSFO Airport